createdAt,value
2023-03-23T15:57:53.827Z,65.57
2023-03-23T16:02:05.668Z,65.13
2023-03-23T16:06:23.698Z,65.16
2023-03-23T16:10:37.327Z,64.54
2023-03-23T16:14:48.934Z,64.42
2023-03-23T16:19:00.587Z,64.34
2023-03-23T16:23:12.347Z,63.79
2023-03-23T16:27:23.928Z,63.65
2023-03-23T16:31:35.726Z,63.20
2023-03-23T16:35:47.416Z,63.47
2023-03-23T16:39:59.283Z,63.32
2023-03-23T16:44:10.870Z,63.39
2023-03-23T16:48:23.180Z,64.02
2023-03-23T16:52:34.884Z,64.58
2023-03-23T16:56:58.100Z,64.59
2023-03-23T17:01:09.882Z,64.97
2023-03-23T17:05:22.802Z,65.14
2023-03-23T17:09:34.518Z,65.29
2023-03-23T17:13:46.139Z,65.48
2023-03-23T17:17:57.872Z,65.71
2023-03-23T17:22:09.555Z,65.99
2023-03-23T17:26:21.220Z,66.25
2023-03-23T17:30:32.951Z,66.70
2023-03-23T17:34:45.082Z,67.10
2023-03-23T17:38:56.685Z,66.88
2023-03-23T17:43:08.372Z,67.55
2023-03-23T17:47:19.977Z,67.57
2023-03-23T17:51:31.805Z,67.73
2023-03-23T17:55:43.843Z,67.96
2023-03-23T17:59:55.880Z,68.34
2023-03-23T18:04:07.556Z,68.79
2023-03-23T18:08:19.227Z,68.74
2023-03-23T18:12:30.876Z,69.00
2023-03-23T18:16:42.582Z,69.34
2023-03-23T18:21:07.510Z,69.63
2023-03-23T18:25:19.263Z,69.80
2023-03-23T18:29:31.002Z,70.16
2023-03-23T18:33:46.714Z,70.59
2023-03-23T18:37:58.507Z,70.81
2023-03-23T18:42:10.132Z,71.34
2023-03-23T18:46:22.307Z,71.87
2023-03-23T18:50:33.993Z,71.91
2023-03-23T18:54:45.883Z,72.32
2023-03-23T18:58:57.684Z,72.08
2023-03-23T19:03:12.273Z,72.26
2023-03-23T19:07:23.944Z,72.48
2023-03-23T19:11:35.711Z,72.73
2023-03-23T19:15:47.471Z,72.12
2023-03-23T19:19:59.290Z,72.63
2023-03-23T19:24:11.613Z,72.69
2023-03-23T19:29:05.563Z,72.65
2023-03-23T19:32:56.068Z,73.02
2023-03-23T19:37:11.154Z,73.25
2023-03-23T19:45:37.002Z,73.04
2023-03-23T19:49:48.743Z,73.32
2023-03-23T19:54:01.044Z,73.09
2023-03-23T19:58:14.039Z,72.94
2023-03-23T20:02:25.951Z,72.99
2023-03-23T20:06:38.258Z,72.78
2023-03-23T20:10:49.811Z,72.92
2023-03-23T20:15:01.731Z,72.87
2023-03-23T20:19:13.385Z,72.88
2023-03-23T20:23:25.394Z,73.23
2023-03-23T20:27:37.946Z,73.11
2023-03-23T20:31:50.921Z,73.25
2023-03-23T20:36:04.919Z,73.90
2023-03-23T20:40:16.625Z,74.93
2023-03-23T20:44:31.109Z,75.91
2023-03-23T20:48:42.802Z,76.80
2023-03-23T20:52:54.798Z,77.64
2023-03-23T20:57:08.258Z,78.37
2023-03-23T21:01:22.037Z,79.00
2023-03-23T21:05:34.078Z,79.86
2023-03-23T21:09:45.838Z,79.93
2023-03-23T21:13:57.449Z,80.01
2023-03-23T21:18:10.178Z,80.17
2023-03-23T21:22:22.373Z,81.22
2023-03-23T21:26:34.260Z,82.03
2023-03-23T21:30:48.354Z,82.37
2023-03-23T21:35:02.651Z,82.83
2023-03-23T21:39:15.307Z,83.08
2023-03-23T21:43:27.899Z,82.95
2023-03-23T21:47:43.321Z,83.44
2023-03-23T21:51:54.915Z,84.42
2023-03-23T21:56:09.615Z,84.78
2023-03-23T22:00:21.520Z,85.03
2023-03-23T22:04:33.146Z,85.52
2023-03-23T22:08:46.464Z,85.38
2023-03-23T22:12:58.113Z,86.07
2023-03-23T22:17:10.587Z,85.68
2023-03-23T22:21:25.473Z,85.62
2023-03-23T22:25:37.402Z,85.37
2023-03-23T22:29:49.044Z,85.81
2023-03-23T22:34:01.604Z,85.88
2023-03-23T22:38:13.263Z,86.13
2023-03-23T22:42:25.109Z,85.83
2023-03-23T22:46:36.773Z,86.71
2023-03-23T22:50:48.870Z,86.51
2023-03-23T22:55:00.573Z,86.97
2023-03-23T22:59:12.328Z,87.43
2023-03-23T23:03:24.637Z,88.21
2023-03-23T23:07:37.383Z,88.30
2023-03-23T23:11:49.056Z,88.40
2023-03-23T23:16:02.075Z,88.97
2023-03-23T23:20:14.154Z,88.90
2023-03-23T23:24:26.556Z,88.99
2023-03-23T23:28:38.136Z,88.90
2023-03-23T23:32:52.256Z,89.10
2023-03-23T23:37:03.891Z,89.63
2023-03-23T23:41:15.685Z,89.88
2023-03-23T23:45:27.762Z,90.26
2023-03-23T23:49:40.324Z,90.24
2023-03-23T23:53:53.607Z,90.22
2023-03-23T23:58:05.656Z,90.24
